Time,TemperatureF,DewpointF,PressureIn,WindDirection,WindDirectionDegrees,WindSpeedMPH,WindSpeedGustMPH,Humidity,HourlyPrecipIn,Conditions,Clouds,dailyrainin,SolarRadiationWatts/m^2,SoftwareType,DateUTC
2014-01-13 00:00:00,32.8,29.1,29.54,SW,223,0.0,0.0,86,0.00,,,0.00,0,Wunderground v.1.15,2014-01-13 06:00:00,
2014-01-13 00:03:00,32.8,29.0,29.54,SW,223,0.0,-999.0,86,-99.99,,,0.00,0,weatherlink.com 1.10,2014-01-13 06:03:00,
2014-01-13 00:10:00,32.5,28.8,29.54,SW,223,0.0,0.0,86,0.00,,,0.00,0,Wunderground v.1.15,2014-01-13 06:10:00,
2014-01-13 00:20:00,32.8,29.4,29.54,SW,222,0.0,0.0,87,0.00,,,0.00,0,Wunderground v.1.15,2014-01-13 06:20:00,
2014-01-13 00:22:00,32.9,30.0,29.54,SW,222,0.0,-999.0,87,-99.99,,,0.00,0,weatherlink.com 1.10,2014-01-13 06:22:00,
2014-01-13 00:34:00,33.9,31.0,29.55,SW,223,0.0,-999.0,87,-99.99,,,0.00,0,weatherlink.com 1.10,2014-01-13 06:34:00,
2014-01-13 00:40:00,34.2,30.4,29.55,SW,222,0.0,0.0,86,0.00,,,0.00,0,Wunderground v.1.15,2014-01-13 06:40:00,
2014-01-13 00:50:00,34.1,30.0,29.55,SW,223,0.0,-999.0,86,-99.99,,,0.00,0,weatherlink.com 1.10,2014-01-13 06:50:00,
2014-01-13 00:55:00,34.1,30.4,29.55,SW,223,0.0,0.0,86,0.00,,,0.00,0,Wunderground v.1.15,2014-01-13 06:55:00,
2014-01-13 01:00:00,34.1,30.1,29.54,SW,222,0.0,0.0,85,0.00,,,0.00,0,Wunderground v.1.15,2014-01-13 07:00:00,
2014-01-13 01:05:00,34.2,31.0,29.54,SW,223,0.0,-999.0,86,-99.99,,,0.00,0,weatherlink.com 1.10,2014-01-13 07:05:00,
2014-01-13 01:10:00,34.2,30.2,29.54,SW,223,0.0,0.0,85,0.00,,,0.00,0,Wunderground v.1.15,2014-01-13 07:10:00,
2014-01-13 01:19:00,34.3,30.0,29.54,SW,223,0.0,-999.0,85,-99.99,,,0.00,0,weatherlink.com 1.10,2014-01-13 07:19:00,
2014-01-13 01:25:00,34.4,30.4,29.54,SW,223,0.0,0.0,85,0.00,,,0.00,0,Wunderground v.1.15,2014-01-13 07:25:00,
2014-01-13 01:35:00,34.1,30.0,29.54,SW,223,0.0,-999.0,85,-99.99,,,0.00,0,weatherlink.com 1.10,2014-01-13 07:35:00,
2014-01-13 01:40:00,34.1,30.1,29.54,SW,223,0.0,0.0,85,0.00,,,0.00,0,Wunderground v.1.15,2014-01-13 07:40:00,
2014-01-13 01:45:00,33.9,29.6,29.54,SW,223,0.0,0.0,84,0.00,,,0.00,0,Wunderground v.1.15,2014-01-13 07:45:00,
2014-01-13 01:50:00,33.7,29.7,29.54,SW,223,0.0,0.0,85,0.00,,,0.00,0,Wunderground v.1.15,2014-01-13 07:50:00,
2014-01-13 02:00:00,33.7,29.7,29.54,SW,223,0.0,0.0,85,0.00,,,0.00,0,Wunderground v.1.15,2014-01-13 08:00:00,
2014-01-13 02:04:00,33.8,30.0,29.54,SW,222,0.0,-999.0,85,-99.99,,,0.00,0,weatherlink.com 1.10,2014-01-13 08:04:00,
2014-01-13 02:10:00,33.8,29.8,29.54,SW,223,0.0,0.0,85,0.00,,,0.00,0,Wunderground v.1.15,2014-01-13 08:10:00,
2014-01-13 02:15:00,33.7,29.7,29.55,SW,223,0.0,0.0,85,0.00,,,0.00,0,Wunderground v.1.15,2014-01-13 08:15:00,
2014-01-13 02:20:00,33.5,29.5,29.55,SW,223,0.0,0.0,85,0.00,,,0.00,0,Wunderground v.1.15,2014-01-13 08:20:00,
2014-01-13 02:30:00,33.4,29.4,29.56,SW,223,0.0,0.0,85,0.00,,,0.00,0,Wunderground v.1.15,2014-01-13 08:30:00,
2014-01-13 02:35:00,33.5,30.0,29.56,SW,223,0.0,-999.0,85,-99.99,,,0.00,0,weatherlink.com 1.10,2014-01-13 08:35:00,
2014-01-13 02:40:00,33.5,29.5,29.56,SW,223,0.0,0.0,85,0.00,,,0.00,0,Wunderground v.1.15,2014-01-13 08:40:00,
2014-01-13 02:45:00,33.5,29.5,29.56,SW,223,0.0,0.0,85,0.00,,,0.00,0,Wunderground v.1.15,2014-01-13 08:45:00,
2014-01-13 02:50:00,33.4,29.0,29.56,SW,222,0.0,-999.0,85,-99.99,,,0.00,0,weatherlink.com 1.10,2014-01-13 08:50:00,
2014-01-13 02:55:00,33.3,29.3,29.56,SW,222,0.0,0.0,85,0.00,,,0.00,0,Wunderground v.1.15,2014-01-13 08:55:00,
2014-01-13 03:00:00,33.3,29.3,29.56,SW,222,0.0,0.0,85,0.00,,,0.00,0,Wunderground v.1.15,2014-01-13 09:00:00,
2014-01-13 03:05:00,33.2,29.2,29.56,SW,222,0.0,0.0,85,0.00,,,0.00,0,Wunderground v.1.15,2014-01-13 09:05:00,
2014-01-13 03:15:00,33.1,29.1,29.56,SW,222,0.0,0.0,85,0.00,,,0.00,0,Wunderground v.1.15,2014-01-13 09:15:00,
2014-01-13 03:20:00,32.9,29.0,29.56,SW,223,0.0,-999.0,85,-99.99,,,0.00,0,weatherlink.com 1.10,2014-01-13 09:20:00,
2014-01-13 03:25:00,32.8,28.8,29.57,SW,222,0.0,0.0,85,0.00,,,0.00,0,Wunderground v.1.15,2014-01-13 09:25:00,
2014-01-13 03:30:00,32.6,28.9,29.57,SW,223,0.0,0.0,86,0.00,,,0.00,0,Wunderground v.1.15,2014-01-13 09:30:00,
2014-01-13 03:35:00,32.6,29.0,29.57,SW,222,0.0,-999.0,86,-99.99,,,0.00,0,weatherlink.com 1.10,2014-01-13 09:35:00,
2014-01-13 03:40:00,32.5,28.8,29.57,SW,222,0.0,0.0,86,0.00,,,0.00,0,Wunderground v.1.15,2014-01-13 09:40:00,
2014-01-13 03:45:00,32.5,28.8,29.57,SW,223,0.0,0.0,86,0.00,,,0.00,0,Wunderground v.1.15,2014-01-13 09:45:00,
2014-01-13 03:51:00,32.4,29.0,29.57,SW,223,0.0,-999.0,86,-99.99,,,0.00,0,weatherlink.com 1.10,2014-01-13 09:51:00,
2014-01-13 04:00:00,32.2,28.5,29.58,SW,223,0.0,0.0,86,0.00,,,0.00,0,Wunderground v.1.15,2014-01-13 10:00:00,
2014-01-13 04:05:00,32.0,28.3,29.58,SW,223,0.0,0.0,86,0.00,,,0.00,0,Wunderground v.1.15,2014-01-13 10:05:00,
2014-01-13 04:15:00,31.7,28.0,29.58,SW,223,0.0,0.0,86,0.00,,,0.00,0,Wunderground v.1.15,2014-01-13 10:15:00,
2014-01-13 04:20:00,31.5,28.0,29.58,SW,223,0.0,-999.0,87,-99.99,,,0.00,0,weatherlink.com 1.10,2014-01-13 10:20:00,
2014-01-13 04:30:00,31.4,28.0,29.59,SW,222,0.0,2.0,87,0.00,,,0.00,0,Wunderground v.1.15,2014-01-13 10:30:00,
2014-01-13 04:35:00,31.4,28.0,29.60,SW,223,1.0,2.0,87,0.00,,,0.00,0,Wunderground v.1.15,2014-01-13 10:35:00,
2014-01-13 04:36:00,31.4,28.0,29.59,SW,223,1.0,-999.0,87,-99.99,,,0.00,0,weatherlink.com 1.10,2014-01-13 10:36:00,
2014-01-13 04:45:00,31.3,27.9,29.59,SW,225,0.0,1.0,87,0.00,,,0.00,0,Wunderground v.1.15,2014-01-13 10:45:00,
2014-01-13 04:50:00,31.2,27.8,29.59,SW,225,0.0,0.0,87,0.00,,,0.00,0,Wunderground v.1.15,2014-01-13 10:50:00,
2014-01-13 04:52:00,31.2,28.0,29.60,SW,225,0.0,-999.0,87,-99.99,,,0.00,0,weatherlink.com 1.10,2014-01-13 10:52:00,
2014-01-13 05:00:00,31.0,27.6,29.60,SW,225,0.0,0.0,87,0.00,,,0.00,0,Wunderground v.1.15,2014-01-13 11:00:00,
2014-01-13 05:05:00,30.9,27.5,29.60,SW,225,0.0,2.0,87,0.00,,,0.00,0,Wunderground v.1.15,2014-01-13 11:05:00,
2014-01-13 05:07:00,30.8,27.0,29.60,SW,225,1.0,-999.0,87,-99.99,,,0.00,0,weatherlink.com 1.10,2014-01-13 11:07:00,
2014-01-13 05:15:00,31.0,27.6,29.60,SW,226,1.0,2.0,87,0.00,,,0.00,0,Wunderground v.1.15,2014-01-13 11:15:00,
2014-01-13 05:20:00,31.1,27.7,29.60,SW,226,1.0,1.0,87,0.00,,,0.00,0,Wunderground v.1.15,2014-01-13 11:20:00,
2014-01-13 05:22:00,31.1,28.0,29.61,SW,227,4.0,-999.0,87,-99.99,,,0.00,0,weatherlink.com 1.10,2014-01-13 11:22:00,
2014-01-13 05:30:00,31.4,27.7,29.61,WNW,300,3.0,7.0,86,0.00,,,0.00,0,Wunderground v.1.15,2014-01-13 11:30:00,
2014-01-13 05:35:00,31.4,27.7,29.61,WNW,300,3.0,7.0,86,0.00,,,0.00,0,Wunderground v.1.15,2014-01-13 11:35:00,
2014-01-13 05:36:00,31.5,28.0,29.61,WNW,299,4.0,-999.0,86,-99.99,,,0.00,0,weatherlink.com 1.10,2014-01-13 11:36:00,
2014-01-13 05:40:00,31.5,27.8,29.61,WNW,300,3.0,4.0,86,0.00,,,0.00,0,Wunderground v.1.15,2014-01-13 11:40:00,
2014-01-13 05:50:00,31.4,27.4,29.62,WNW,298,3.0,3.0,85,0.00,,,0.00,0,Wunderground v.1.15,2014-01-13 11:50:00,
2014-01-13 05:52:00,31.3,27.0,29.62,WNW,299,2.0,-999.0,84,-99.99,,,0.00,0,weatherlink.com 1.10,2014-01-13 11:52:00,
2014-01-13 06:00:00,31.2,26.9,29.62,West,259,3.0,3.0,84,0.00,,,0.00,0,Wunderground v.1.15,2014-01-13 12:00:00,
2014-01-13 06:05:00,31.1,26.8,29.62,West,259,2.0,3.0,84,0.00,,,0.00,0,Wunderground v.1.15,2014-01-13 12:05:00,
2014-01-13 06:07:00,31.1,27.0,29.62,West,260,1.0,-999.0,84,-99.99,,,0.00,0,weatherlink.com 1.10,2014-01-13 12:07:00,
2014-01-13 06:15:00,31.1,26.5,29.62,West,260,1.0,2.0,83,0.00,,,0.00,0,Wunderground v.1.15,2014-01-13 12:15:00,
2014-01-13 06:22:00,31.0,26.0,29.63,West,263,2.0,-999.0,83,-99.99,,,0.00,0,weatherlink.com 1.10,2014-01-13 12:22:00,
2014-01-13 06:30:00,31.0,26.4,29.63,West,265,2.0,2.0,83,0.00,,,0.00,0,Wunderground v.1.15,2014-01-13 12:30:00,
2014-01-13 06:35:00,31.0,26.4,29.63,West,271,2.0,2.0,83,0.00,,,0.00,0,Wunderground v.1.15,2014-01-13 12:35:00,
2014-01-13 06:37:00,31.0,26.0,29.63,West,272,4.0,-999.0,83,-99.99,,,0.00,0,weatherlink.com 1.10,2014-01-13 12:37:00,
2014-01-13 06:45:00,31.0,26.1,29.63,WNW,292,3.0,4.0,82,0.00,,,0.00,0,Wunderground v.1.15,2014-01-13 12:45:00,
2014-01-13 06:53:00,30.9,26.0,29.64,WNW,302,5.0,-999.0,81,-99.99,,,0.00,0,weatherlink.com 1.10,2014-01-13 12:53:00,
2014-01-13 07:00:00,30.9,25.5,29.64,WNW,300,4.0,4.0,80,0.00,,,0.00,0,Wunderground v.1.15,2014-01-13 13:00:00,
2014-01-13 07:05:00,30.8,25.1,29.64,NW,309,4.0,4.0,79,0.00,,,0.00,0,Wunderground v.1.15,2014-01-13 13:05:00,
2014-01-13 07:08:00,30.7,25.0,29.64,NW,309,5.0,-999.0,79,-99.99,,,0.00,0,weatherlink.com 1.10,2014-01-13 13:08:00,
2014-01-13 07:15:00,30.6,24.9,29.64,NW,309,2.0,4.0,79,0.00,,,0.00,0,Wunderground v.1.15,2014-01-13 13:15:00,
2014-01-13 07:20:00,30.5,24.8,29.64,NW,307,3.0,3.0,79,0.00,,,0.00,0,Wunderground v.1.15,2014-01-13 13:20:00,
2014-01-13 07:22:00,30.4,25.0,29.64,NW,307,2.0,-999.0,79,-99.99,,,0.00,0,weatherlink.com 1.10,2014-01-13 13:22:00,
2014-01-13 07:30:00,30.3,24.3,29.65,NW,307,3.0,5.0,78,0.00,,,0.00,0,Wunderground v.1.15,2014-01-13 13:30:00,
2014-01-13 07:35:00,30.3,24.3,29.65,WNW,286,3.0,5.0,78,0.00,,,0.00,0,Wunderground v.1.15,2014-01-13 13:35:00,
2014-01-13 07:38:00,30.2,24.0,29.66,WNW,286,2.0,-999.0,78,-99.99,,,0.00,0,weatherlink.com 1.10,2014-01-13 13:38:00,
2014-01-13 07:45:00,30.1,24.1,29.66,WNW,297,3.0,3.0,78,0.00,,,0.00,0,Wunderground v.1.15,2014-01-13 13:45:00,
2014-01-13 07:52:00,29.8,23.0,29.66,WNW,292,2.0,-999.0,77,-99.99,,,0.00,5,weatherlink.com 1.10,2014-01-13 13:52:00,
2014-01-13 07:55:00,29.8,23.5,29.67,WNW,291,4.0,4.0,77,0.00,,,0.00,5,Wunderground v.1.15,2014-01-13 13:55:00,
2014-01-13 08:05:00,29.5,22.9,29.67,WNW,292,3.0,4.0,76,0.00,,,0.00,12,Wunderground v.1.15,2014-01-13 14:05:00,
2014-01-13 08:08:00,29.4,23.0,29.67,WNW,285,4.0,-999.0,76,-99.99,,,0.00,12,weatherlink.com 1.10,2014-01-13 14:08:00,
2014-01-13 08:15:00,29.5,22.6,29.67,NW,304,5.0,5.0,75,0.00,,,0.00,21,Wunderground v.1.15,2014-01-13 14:15:00,
2014-01-13 08:20:00,29.6,22.3,29.67,NW,315,4.0,4.0,74,0.00,,,0.00,25,Wunderground v.1.15,2014-01-13 14:20:00,
2014-01-13 08:22:00,29.6,22.0,29.67,NW,315,4.0,-999.0,74,-99.99,,,0.00,28,weatherlink.com 1.10,2014-01-13 14:22:00,
2014-01-13 08:30:00,29.7,22.1,29.68,NW,312,3.0,4.0,73,0.00,,,0.00,40,Wunderground v.1.15,2014-01-13 14:30:00,
2014-01-13 08:38:00,29.7,22.0,29.68,NW,316,2.0,-999.0,72,-99.99,,,0.00,54,weatherlink.com 1.10,2014-01-13 14:38:00,
2014-01-13 08:45:00,29.7,21.4,29.69,WNW,299,4.0,5.0,71,0.00,,,0.00,67,Wunderground v.1.15,2014-01-13 14:45:00,
2014-01-13 08:53:00,29.8,21.0,29.69,WNW,294,5.0,-999.0,70,-99.99,,,0.00,88,weatherlink.com 1.10,2014-01-13 14:53:00,
2014-01-13 08:55:00,29.7,21.1,29.69,WNW,292,4.0,5.0,70,0.00,,,0.00,93,Wunderground v.1.15,2014-01-13 14:55:00,
2014-01-13 09:05:00,30.0,21.1,29.69,WNW,294,3.0,5.0,69,0.00,,,0.00,113,Wunderground v.1.15,2014-01-13 15:05:00,
2014-01-13 09:09:00,30.1,21.0,29.69,WNW,298,8.0,-999.0,69,-99.99,,,0.00,120,weatherlink.com 1.10,2014-01-13 15:09:00,
2014-01-13 09:15:00,30.1,20.8,29.69,WNW,300,4.0,5.0,68,0.00,,,0.00,132,Wunderground v.1.15,2014-01-13 15:15:00,
2014-01-13 09:23:00,30.3,21.0,29.70,NW,304,5.0,-999.0,68,-99.99,,,0.00,148,weatherlink.com 1.10,2014-01-13 15:23:00,
2014-01-13 09:30:00,30.5,21.2,29.70,NW,309,4.0,4.0,68,0.00,,,0.00,162,Wunderground v.1.15,2014-01-13 15:30:00,
2014-01-13 09:35:00,30.8,21.5,29.70,WNW,296,2.0,5.0,68,0.00,,,0.00,160,Wunderground v.1.15,2014-01-13 15:35:00,
2014-01-13 09:38:00,30.8,21.0,29.70,WNW,300,0.0,-999.0,67,-99.99,,,0.00,151,weatherlink.com 1.10,2014-01-13 15:38:00,
2014-01-13 09:45:00,31.1,21.4,29.70,WNW,302,3.0,3.0,67,0.00,,,0.00,188,Wunderground v.1.15,2014-01-13 15:45:00,
2014-01-13 09:50:00,31.2,21.5,29.71,WNW,300,3.0,3.0,67,0.00,,,0.00,211,Wunderground v.1.15,2014-01-13 15:50:00,
2014-01-13 09:54:00,31.2,22.0,29.71,WNW,300,1.0,-999.0,68,-99.99,,,0.00,230,weatherlink.com 1.10,2014-01-13 15:54:00,
2014-01-13 09:55:00,31.3,22.0,29.70,WNW,300,2.0,3.0,68,0.00,,,0.00,236,Wunderground v.1.15,2014-01-13 15:55:00,
2014-01-13 10:00:00,31.3,22.0,29.70,WNW,299,2.0,2.0,68,0.00,,,0.00,250,Wunderground v.1.15,2014-01-13 16:00:00,
2014-01-13 10:05:00,31.2,21.9,29.71,WNW,296,3.0,5.0,68,0.00,,,0.00,272,Wunderground v.1.15,2014-01-13 16:05:00,
2014-01-13 10:09:00,31.2,22.0,29.70,WNW,297,2.0,-999.0,68,-99.99,,,0.00,274,weatherlink.com 1.10,2014-01-13 16:09:00,
2014-01-13 10:15:00,31.3,22.0,29.71,WNW,296,3.0,6.0,68,0.00,,,0.00,290,Wunderground v.1.15,2014-01-13 16:15:00,
2014-01-13 10:25:00,31.5,22.0,29.71,WNW,292,2.0,-999.0,67,-99.99,,,0.00,302,weatherlink.com 1.10,2014-01-13 16:25:00,
2014-01-13 10:30:00,31.4,21.7,29.71,West,277,4.0,5.0,67,0.00,,,0.00,308,Wunderground v.1.15,2014-01-13 16:30:00,
2014-01-13 10:35:00,31.4,22.1,29.70,West,271,3.0,5.0,68,0.00,,,0.00,323,Wunderground v.1.15,2014-01-13 16:35:00,
2014-01-13 10:40:00,31.4,22.0,29.70,West,259,0.0,-999.0,68,-99.99,,,0.00,329,weatherlink.com 1.10,2014-01-13 16:40:00,
2014-01-13 10:50:00,31.3,22.3,29.70,WSW,258,2.0,3.0,69,0.00,,,0.00,327,Wunderground v.1.15,2014-01-13 16:50:00,
2014-01-13 10:54:00,31.0,22.0,29.70,WSW,253,3.0,-999.0,69,-99.99,,,0.00,345,weatherlink.com 1.10,2014-01-13 16:54:00,
2014-01-13 11:00:00,30.7,21.7,29.70,West,264,3.0,4.0,69,0.00,,,0.00,338,Wunderground v.1.15,2014-01-13 17:00:00,
2014-01-13 11:05:00,30.6,22.0,29.70,West,273,3.0,7.0,70,0.00,,,0.00,323,Wunderground v.1.15,2014-01-13 17:05:00,
2014-01-13 11:09:00,30.5,22.0,29.69,West,261,2.0,-999.0,70,-99.99,,,0.00,325,weatherlink.com 1.10,2014-01-13 17:09:00,
2014-01-13 11:15:00,30.5,21.9,29.70,WSW,257,4.0,6.0,70,0.00,,,0.00,318,Wunderground v.1.15,2014-01-13 17:15:00,
2014-01-13 11:25:00,30.5,21.9,29.69,West,260,4.0,4.0,70,0.00,,,0.00,327,Wunderground v.1.15,2014-01-13 17:25:00,
2014-01-13 11:30:00,30.6,22.0,29.69,West,259,4.0,4.0,70,0.00,,,0.00,329,Wunderground v.1.15,2014-01-13 17:30:00,
2014-01-13 11:40:00,30.4,21.4,29.68,West,267,4.0,4.0,69,0.00,,,0.00,369,Wunderground v.1.15,2014-01-13 17:40:00,
2014-01-13 11:45:00,30.2,20.6,29.69,West,272,5.0,5.0,67,0.00,,,0.00,388,Wunderground v.1.15,2014-01-13 17:45:00,
2014-01-13 11:55:00,30.3,21.0,29.69,West,272,4.0,4.0,68,0.00,,,0.00,399,Wunderground v.1.15,2014-01-13 17:55:00,
2014-01-13 12:05:00,31.0,21.0,29.68,West,275,4.0,4.0,66,0.00,,,0.00,403,Wunderground v.1.15,2014-01-13 18:05:00,
2014-01-13 12:15:00,31.1,20.7,29.68,West,263,4.0,6.0,65,0.00,,,0.00,399,Wunderground v.1.15,2014-01-13 18:15:00,
2014-01-13 12:25:00,30.6,20.6,29.68,WSW,257,5.0,6.0,66,0.00,,,0.00,309,Wunderground v.1.15,2014-01-13 18:25:00,
2014-01-13 12:40:00,30.6,20.9,29.68,WSW,253,4.0,6.0,67,0.00,,,0.00,306,Wunderground v.1.15,2014-01-13 18:40:00,
2014-01-13 12:50:00,30.7,20.7,29.69,NW,309,6.0,6.0,66,0.00,,,0.00,220,Wunderground v.1.15,2014-01-13 18:50:00,
2014-01-13 12:55:00,30.8,20.8,29.68,WNW,299,4.0,4.0,66,0.00,,,0.00,341,Wunderground v.1.15,2014-01-13 18:55:00,
2014-01-13 13:00:00,30.8,20.8,29.69,WNW,286,4.0,4.0,66,0.00,,,0.00,309,Wunderground v.1.15,2014-01-13 19:00:00,
2014-01-13 13:05:00,30.7,20.7,29.69,NE,37,4.0,4.0,66,0.00,,,0.00,207,Wunderground v.1.15,2014-01-13 19:05:00,
2014-01-13 13:15:00,30.8,20.0,29.68,NW,316,4.0,5.0,64,0.00,,,0.00,141,Wunderground v.1.15,2014-01-13 19:15:00,
2014-01-13 13:25:00,31.0,20.2,29.68,WSW,257,4.0,4.0,64,0.00,,,0.00,132,Wunderground v.1.15,2014-01-13 19:25:00,
2014-01-13 13:30:00,30.5,19.8,29.68,West,268,4.0,4.0,64,0.00,,,0.00,206,Wunderground v.1.15,2014-01-13 19:30:00,
2014-01-13 13:40:00,30.2,19.8,29.68,West,268,5.0,5.0,65,0.00,,,0.00,209,Wunderground v.1.15,2014-01-13 19:40:00,
2014-01-13 13:50:00,30.4,19.7,29.68,West,269,5.0,5.0,64,0.00,,,0.00,199,Wunderground v.1.15,2014-01-13 19:50:00,
2014-01-13 13:55:00,30.7,20.0,29.67,West,269,3.0,5.0,64,0.00,,,0.00,127,Wunderground v.1.15,2014-01-13 19:55:00,
2014-01-13 14:05:00,30.7,19.6,29.68,West,269,3.0,4.0,63,0.00,,,0.00,250,Wunderground v.1.15,2014-01-13 20:05:00,
2014-01-13 14:15:00,30.6,19.9,29.68,WSW,258,3.0,4.0,64,0.00,,,0.00,239,Wunderground v.1.15,2014-01-13 20:15:00,
2014-01-13 14:25:00,30.4,19.7,29.69,WSW,255,4.0,7.0,64,0.00,,,0.00,167,Wunderground v.1.15,2014-01-13 20:25:00,
2014-01-13 14:35:00,30.6,20.2,29.69,WSW,249,3.0,4.0,65,0.00,,,0.00,214,Wunderground v.1.15,2014-01-13 20:35:00,
2014-01-13 14:40:00,30.6,20.2,29.69,West,261,3.0,3.0,65,0.00,,,0.00,199,Wunderground v.1.15,2014-01-13 20:40:00,
2014-01-13 14:50:00,30.8,20.4,29.69,West,267,3.0,3.0,65,0.00,,,0.00,165,Wunderground v.1.15,2014-01-13 20:50:00,
2014-01-13 15:00:00,30.5,20.5,29.69,West,276,3.0,5.0,66,0.00,,,0.00,100,Wunderground v.1.15,2014-01-13 21:00:00,
2014-01-13 15:05:00,30.3,20.6,29.70,West,281,4.0,5.0,67,0.00,,,0.00,100,Wunderground v.1.15,2014-01-13 21:05:00,
2014-01-13 15:15:00,30.1,20.5,29.70,WSW,257,4.0,4.0,67,0.00,,,0.00,104,Wunderground v.1.15,2014-01-13 21:15:00,
2014-01-13 15:25:00,29.9,20.3,29.70,West,269,3.0,5.0,67,0.00,,,0.00,77,Wunderground v.1.15,2014-01-13 21:25:00,
2014-01-13 15:30:00,29.8,20.2,29.71,West,265,3.0,3.0,67,0.00,,,0.00,70,Wunderground v.1.15,2014-01-13 21:30:00,
2014-01-13 15:40:00,29.3,20.4,29.71,West,260,3.0,3.0,69,0.00,,,0.00,35,Wunderground v.1.15,2014-01-13 21:40:00,
2014-01-13 15:50:00,28.8,20.2,29.71,WSW,256,3.0,4.0,70,0.00,,,0.00,39,Wunderground v.1.15,2014-01-13 21:50:00,
2014-01-13 16:00:00,28.7,20.1,29.71,WSW,254,2.0,6.0,70,0.00,,,0.00,30,Wunderground v.1.15,2014-01-13 22:00:00,
2014-01-13 16:05:00,28.6,20.1,29.71,WNW,288,3.0,6.0,70,0.00,,,0.00,28,Wunderground v.1.15,2014-01-13 22:05:00,
2014-01-13 16:15:00,28.3,20.1,29.70,WNW,288,3.0,3.0,71,0.00,,,0.00,19,Wunderground v.1.15,2014-01-13 22:15:00,
2014-01-13 16:25:00,27.9,19.7,29.70,WNW,288,0.0,2.0,71,0.00,,,0.00,14,Wunderground v.1.15,2014-01-13 22:25:00,
2014-01-13 16:30:00,27.6,19.8,29.70,WNW,288,0.0,0.0,72,0.00,,,0.00,12,Wunderground v.1.15,2014-01-13 22:30:00,
2014-01-13 16:40:00,27.3,19.8,29.70,WNW,288,0.0,1.0,73,0.00,,,0.00,9,Wunderground v.1.15,2014-01-13 22:40:00,
2014-01-13 16:45:00,27.2,19.7,29.70,WNW,288,0.0,1.0,73,0.00,,,0.00,5,Wunderground v.1.15,2014-01-13 22:45:00,
2014-01-13 16:55:00,27.0,19.8,29.71,WNW,288,0.0,0.0,74,0.00,,,0.00,0,Wunderground v.1.15,2014-01-13 22:55:00,
2014-01-13 17:05:00,26.8,19.6,29.71,WNW,288,0.0,0.0,74,0.00,,,0.00,0,Wunderground v.1.15,2014-01-13 23:05:00,
2014-01-13 17:15:00,26.9,20.0,29.71,WNW,288,0.0,0.0,75,0.00,,,0.00,0,Wunderground v.1.15,2014-01-13 23:15:00,
2014-01-13 17:25:00,26.8,19.9,29.71,WNW,288,0.0,0.0,75,0.00,,,0.00,0,Wunderground v.1.15,2014-01-13 23:25:00,
2014-01-13 17:35:00,26.8,20.2,29.71,WNW,288,0.0,0.0,76,0.00,,,0.00,0,Wunderground v.1.15,2014-01-13 23:35:00,
2014-01-13 17:40:00,26.7,20.1,29.71,WNW,288,0.0,0.0,76,0.00,,,0.00,0,Wunderground v.1.15,2014-01-13 23:40:00,
2014-01-13 17:45:00,26.6,20.4,29.71,WNW,288,0.0,0.0,77,0.00,,,0.00,0,Wunderground v.1.15,2014-01-13 23:45:00,
2014-01-13 17:55:00,26.3,20.1,29.71,WNW,288,0.0,0.0,77,0.00,,,0.00,0,Wunderground v.1.15,2014-01-13 23:55:00,
2014-01-13 18:05:00,26.1,20.2,29.72,WNW,288,0.0,0.0,78,0.00,,,0.00,0,Wunderground v.1.15,2014-01-14 00:05:00,
2014-01-13 18:15:00,25.7,19.8,29.71,WNW,288,0.0,0.0,78,0.00,,,0.00,0,Wunderground v.1.15,2014-01-14 00:15:00,
2014-01-13 18:20:00,25.6,20.0,29.71,WNW,288,0.0,0.0,79,0.00,,,0.00,0,Wunderground v.1.15,2014-01-14 00:20:00,
2014-01-13 18:30:00,25.0,19.4,29.70,WNW,288,0.0,0.0,79,0.00,,,0.00,0,Wunderground v.1.15,2014-01-14 00:30:00,
2014-01-13 18:35:00,24.7,19.1,29.70,WNW,288,0.0,0.0,79,0.00,,,0.00,0,Wunderground v.1.15,2014-01-14 00:35:00,
2014-01-13 18:40:00,24.5,19.2,29.70,WNW,288,0.0,0.0,80,0.00,,,0.00,0,Wunderground v.1.15,2014-01-14 00:40:00,
2014-01-13 18:50:00,24.5,19.5,29.70,WNW,288,0.0,0.0,81,0.00,,,0.00,0,Wunderground v.1.15,2014-01-14 00:50:00,
2014-01-13 19:00:00,24.5,19.5,29.70,WNW,288,0.0,0.0,81,0.00,,,0.00,0,Wunderground v.1.15,2014-01-14 01:00:00,
2014-01-13 19:05:00,24.6,19.6,29.70,WNW,288,0.0,0.0,81,0.00,,,0.00,0,Wunderground v.1.15,2014-01-14 01:05:00,
2014-01-13 19:15:00,24.7,20.0,29.70,WNW,288,0.0,0.0,82,0.00,,,0.00,0,Wunderground v.1.15,2014-01-14 01:15:00,
2014-01-13 19:25:00,25.2,20.5,29.71,WNW,288,0.0,0.0,82,0.00,,,0.00,0,Wunderground v.1.15,2014-01-14 01:25:00,
2014-01-13 19:35:00,25.7,21.0,29.70,WNW,288,0.0,0.0,82,0.00,,,0.00,0,Wunderground v.1.15,2014-01-14 01:35:00,
2014-01-13 19:40:00,25.8,21.1,29.70,WNW,288,0.0,0.0,82,0.00,,,0.00,0,Wunderground v.1.15,2014-01-14 01:40:00,
2014-01-13 19:50:00,25.8,21.1,29.70,WNW,288,0.0,0.0,82,0.00,,,0.00,0,Wunderground v.1.15,2014-01-14 01:50:00,
2014-01-13 20:00:00,25.8,21.1,29.70,WNW,288,0.0,0.0,82,0.00,,,0.00,0,Wunderground v.1.15,2014-01-14 02:00:00,
2014-01-13 20:05:00,25.8,21.1,29.70,WNW,288,0.0,0.0,82,0.00,,,0.00,0,Wunderground v.1.15,2014-01-14 02:05:00,
2014-01-13 20:15:00,25.8,21.1,29.69,WNW,288,0.0,0.0,82,0.00,,,0.00,0,Wunderground v.1.15,2014-01-14 02:15:00,
2014-01-13 20:20:00,25.8,21.3,29.68,WNW,287,0.0,0.0,83,0.00,,,0.00,0,Wunderground v.1.15,2014-01-14 02:20:00,
2014-01-13 20:30:00,26.0,21.5,29.69,WNW,288,0.0,0.0,83,0.00,,,0.00,0,Wunderground v.1.15,2014-01-14 02:30:00,
2014-01-13 20:35:00,26.2,22.0,29.68,WNW,287,1.0,1.0,84,0.00,,,0.00,0,Wunderground v.1.15,2014-01-14 02:35:00,
2014-01-13 20:45:00,25.9,21.7,29.68,WNW,288,1.0,1.0,84,0.00,,,0.00,0,Wunderground v.1.15,2014-01-14 02:45:00,
2014-01-13 20:55:00,25.9,22.0,29.68,WNW,287,1.0,1.0,85,0.00,,,0.01,0,Wunderground v.1.15,2014-01-14 02:55:00,
2014-01-13 21:05:00,25.8,22.5,29.67,WNW,287,0.0,2.0,87,0.00,,,0.01,0,Wunderground v.1.15,2014-01-14 03:05:00,
2014-01-13 21:15:00,25.8,22.5,29.66,WNW,289,1.0,1.0,87,0.00,,,0.01,0,Wunderground v.1.15,2014-01-14 03:15:00,
2014-01-13 21:20:00,25.8,22.5,29.66,NE,37,2.0,2.0,87,0.00,,,0.01,0,Wunderground v.1.15,2014-01-14 03:20:00,
2014-01-13 21:30:00,26.0,22.7,29.65,NE,41,1.0,2.0,87,0.00,,,0.01,0,Wunderground v.1.15,2014-01-14 03:30:00,
2014-01-13 21:40:00,25.9,22.8,29.65,NE,44,1.0,1.0,88,0.00,,,0.01,0,Wunderground v.1.15,2014-01-14 03:40:00,
2014-01-13 21:50:00,26.0,22.9,29.65,NE,44,1.0,2.0,88,0.00,,,0.01,0,Wunderground v.1.15,2014-01-14 03:50:00,
2014-01-13 21:55:00,26.0,22.9,29.65,NE,44,1.0,4.0,88,0.00,,,0.01,0,Wunderground v.1.15,2014-01-14 03:55:00,
2014-01-13 22:00:00,26.1,23.0,29.64,East,98,3.0,5.0,88,0.00,,,0.01,0,Wunderground v.1.15,2014-01-14 04:00:00,
2014-01-13 22:05:00,26.2,23.1,29.63,East,98,3.0,5.0,88,0.00,,,0.01,0,Wunderground v.1.15,2014-01-14 04:05:00,
2014-01-13 22:15:00,26.4,23.3,29.63,East,99,2.0,5.0,88,0.00,,,0.01,0,Wunderground v.1.15,2014-01-14 04:15:00,
2014-01-13 22:25:00,26.7,23.6,29.63,East,98,3.0,5.0,88,0.00,,,0.01,0,Wunderground v.1.15,2014-01-14 04:25:00,
2014-01-13 22:35:00,27.0,23.9,29.62,East,98,3.0,4.0,88,0.00,,,0.01,0,Wunderground v.1.15,2014-01-14 04:35:00,
2014-01-13 22:45:00,27.1,24.0,29.62,East,98,2.0,5.0,88,0.00,,,0.01,0,Wunderground v.1.15,2014-01-14 04:45:00,
2014-01-13 22:50:00,27.1,24.0,29.62,East,98,2.0,2.0,88,0.00,,,0.01,0,Wunderground v.1.15,2014-01-14 04:50:00,
2014-01-13 22:55:00,27.2,24.1,29.62,East,98,2.0,2.0,88,0.00,,,0.01,0,Wunderground v.1.15,2014-01-14 04:55:00,
2014-01-13 23:10:00,27.2,24.1,29.61,East,98,2.0,2.0,88,0.00,,,0.01,0,Wunderground v.1.15,2014-01-14 05:10:00,
2014-01-13 23:15:00,27.2,24.1,29.62,East,98,1.0,2.0,88,0.00,,,0.01,0,Wunderground v.1.15,2014-01-14 05:15:00,
2014-01-13 23:20:00,27.2,24.1,29.62,East,98,0.0,0.0,88,0.00,,,0.01,0,Wunderground v.1.15,2014-01-14 05:20:00,
2014-01-13 23:25:00,27.2,24.1,29.61,East,98,1.0,2.0,88,0.00,,,0.01,0,Wunderground v.1.15,2014-01-14 05:25:00,
2014-01-13 23:30:00,27.2,24.1,29.61,East,98,2.0,4.0,88,0.00,,,0.01,0,Wunderground v.1.15,2014-01-14 05:30:00,
2014-01-13 23:40:00,27.2,24.1,29.60,East,98,3.0,4.0,88,0.00,,,0.01,0,Wunderground v.1.15,2014-01-14 05:40:00,
2014-01-13 23:45:00,27.2,24.1,29.60,East,98,3.0,4.0,88,0.00,,,0.01,0,Wunderground v.1.15,2014-01-14 05:45:00,
2014-01-13 23:50:00,27.1,24.0,29.60,East,98,3.0,5.0,88,0.00,,,0.01,0,Wunderground v.1.15,2014-01-14 05:50:00,